createdAt,value
2023-04-26T00:00:22.503Z,100.00
2023-04-26T00:02:48.812Z,100.00
2023-04-26T00:05:15.220Z,100.00
2023-04-26T00:07:43.901Z,100.00
2023-04-26T00:10:10.054Z,100.00
2023-04-26T00:12:36.232Z,100.00
2023-04-26T00:15:02.396Z,100.00
2023-04-26T00:17:28.590Z,100.00
2023-04-26T00:19:54.842Z,100.00
2023-04-26T00:22:21.023Z,100.00
2023-04-26T00:24:47.311Z,100.00
2023-04-26T00:27:13.508Z,100.00
2023-04-26T00:29:39.737Z,100.00
2023-04-26T00:32:06.054Z,100.00
2023-04-26T00:34:32.236Z,100.00
2023-04-26T00:36:58.634Z,100.00
2023-04-26T00:39:24.838Z,100.00
2023-04-26T00:41:51.048Z,100.00
2023-04-26T00:44:17.221Z,100.00
2023-04-26T00:46:43.353Z,100.00
2023-04-26T00:49:09.461Z,100.00
2023-04-26T00:51:35.633Z,100.00
2023-04-26T00:54:01.827Z,100.00
2023-04-26T00:56:28.023Z,100.00
2023-04-26T00:58:54.335Z,100.00
2023-04-26T01:01:20.732Z,100.00
2023-04-26T01:03:47.114Z,100.00
2023-04-26T01:06:13.394Z,100.00
2023-04-26T01:08:39.549Z,100.00
2023-04-26T01:11:05.730Z,100.00
2023-04-26T01:13:31.912Z,100.00
2023-04-26T01:15:58.076Z,100.00
2023-04-26T01:18:24.225Z,100.00
2023-04-26T01:20:50.363Z,100.00
2023-04-26T01:23:16.549Z,100.00
2023-04-26T01:25:42.708Z,100.00
2023-04-26T01:28:08.865Z,100.00
2023-04-26T01:30:35.016Z,100.00
2023-04-26T01:33:01.266Z,100.00
2023-04-26T01:35:28.064Z,100.00
2023-04-26T01:37:54.192Z,100.00
2023-04-26T01:40:20.405Z,100.00
2023-04-26T01:42:46.615Z,100.00
2023-04-26T01:45:12.800Z,100.00
2023-04-26T01:47:39.017Z,100.00
2023-04-26T01:50:05.183Z,100.00
2023-04-26T01:52:31.403Z,100.00
2023-04-26T01:54:57.634Z,100.00
2023-04-26T01:57:25.734Z,100.00
2023-04-26T01:59:51.896Z,100.00
2023-04-26T02:02:18.062Z,100.00
2023-04-26T02:04:44.277Z,100.00
2023-04-26T02:07:10.449Z,100.00
2023-04-26T02:09:36.640Z,100.00
2023-04-26T02:12:02.816Z,100.00
2023-04-26T02:14:28.981Z,100.00
2023-04-26T02:16:55.153Z,100.00
2023-04-26T02:19:21.320Z,100.00
2023-04-26T02:21:47.435Z,100.00
2023-04-26T02:24:13.615Z,100.00
2023-04-26T02:26:39.769Z,100.00
2023-04-26T02:29:05.932Z,100.00
2023-04-26T02:31:32.524Z,100.00
2023-04-26T02:33:58.663Z,100.00
2023-04-26T02:36:24.842Z,100.00
2023-04-26T02:38:51.170Z,100.00
2023-04-26T02:41:17.480Z,100.00
2023-04-26T02:43:43.640Z,100.00
2023-04-26T02:46:09.848Z,100.00
2023-04-26T02:48:36.000Z,100.00
2023-04-26T02:51:02.194Z,100.00
2023-04-26T02:53:28.576Z,100.00
2023-04-26T02:55:54.740Z,100.00
2023-04-26T02:58:20.870Z,100.00
2023-04-26T03:00:47.163Z,100.00
2023-04-26T03:03:13.643Z,100.00
2023-04-26T03:05:40.034Z,100.00
2023-04-26T03:08:06.179Z,100.00
2023-04-26T03:10:32.350Z,100.00
2023-04-26T03:12:58.579Z,100.00
2023-04-26T03:15:24.774Z,100.00
2023-04-26T03:17:50.927Z,100.00
2023-04-26T03:20:17.129Z,100.00
2023-04-26T03:22:43.260Z,100.00
2023-04-26T03:25:09.451Z,100.00
2023-04-26T03:27:35.636Z,100.00
2023-04-26T03:30:04.508Z,100.00
2023-04-26T03:32:30.694Z,100.00
2023-04-26T03:34:56.875Z,100.00
2023-04-26T03:37:23.039Z,100.00
2023-04-26T03:39:49.239Z,100.00
2023-04-26T03:42:15.394Z,100.00
2023-04-26T03:44:41.521Z,100.00
2023-04-26T03:47:07.720Z,100.00
2023-04-26T03:49:33.937Z,100.00
2023-04-26T03:52:00.136Z,100.00
2023-04-26T03:54:26.336Z,100.00
2023-04-26T03:56:52.490Z,100.00
2023-04-26T03:59:18.704Z,100.00
2023-04-26T04:01:44.820Z,100.00
2023-04-26T04:04:11.255Z,100.00
2023-04-26T04:06:37.642Z,100.00
2023-04-26T04:09:03.821Z,100.00
2023-04-26T04:11:29.972Z,100.00
2023-04-26T04:13:56.110Z,100.00
2023-04-26T04:16:22.406Z,100.00
2023-04-26T04:18:48.966Z,100.00
2023-04-26T04:21:15.152Z,100.00
2023-04-26T04:23:41.317Z,100.00
2023-04-26T04:26:07.523Z,100.00
2023-04-26T04:28:33.726Z,100.00
2023-04-26T04:31:00.004Z,100.00
2023-04-26T04:33:26.166Z,100.00
2023-04-26T04:35:52.348Z,100.00
2023-04-26T04:38:18.546Z,100.00
2023-04-26T04:40:44.676Z,100.00
2023-04-26T04:43:11.163Z,100.00
2023-04-26T04:45:37.340Z,100.00
2023-04-26T04:48:03.569Z,100.00
2023-04-26T04:50:29.811Z,100.00
2023-04-26T04:52:55.964Z,100.00
2023-04-26T04:55:22.103Z,100.00
2023-04-26T04:57:48.302Z,100.00
2023-04-26T05:00:14.470Z,100.00
2023-04-26T05:02:40.763Z,100.00
2023-04-26T05:05:07.085Z,100.00
2023-04-26T05:07:33.272Z,100.00
2023-04-26T05:09:59.392Z,100.00
2023-04-26T05:12:25.674Z,100.00
2023-04-26T05:14:51.872Z,100.00
2023-04-26T05:17:18.061Z,100.00
2023-04-26T05:19:44.179Z,100.00
2023-04-26T05:22:10.372Z,100.00
2023-04-26T05:24:36.546Z,100.00
2023-04-26T05:27:02.721Z,100.00
2023-04-26T05:29:28.926Z,100.00
2023-04-26T05:31:55.135Z,100.00
2023-04-26T05:34:21.463Z,100.00
2023-04-26T05:36:47.608Z,100.00
2023-04-26T05:39:15.700Z,100.00
2023-04-26T05:41:41.872Z,100.00
2023-04-26T05:44:08.073Z,100.00
2023-04-26T05:46:34.202Z,100.00
2023-04-26T05:49:00.354Z,100.00
2023-04-26T05:51:29.572Z,100.00
2023-04-26T05:53:55.700Z,100.00
2023-04-26T05:56:22.027Z,100.00
2023-04-26T05:58:48.162Z,100.00
2023-04-26T06:01:14.350Z,100.00
2023-04-26T06:03:40.704Z,100.00
2023-04-26T06:06:06.984Z,100.00
2023-04-26T06:08:33.157Z,100.00
2023-04-26T06:10:59.317Z,100.00
2023-04-26T06:13:28.529Z,100.00
2023-04-26T06:15:54.711Z,100.00
2023-04-26T06:18:20.846Z,100.00
2023-04-26T06:20:48.217Z,100.00
2023-04-26T06:23:14.437Z,100.00
2023-04-26T06:25:40.569Z,100.00
2023-04-26T06:28:06.714Z,100.00
2023-04-26T06:30:33.942Z,100.00
2023-04-26T06:33:00.265Z,100.00
2023-04-26T06:35:26.453Z,100.00
2023-04-26T06:37:52.626Z,100.00
2023-04-26T06:40:18.838Z,100.00
2023-04-26T06:42:45.010Z,100.00
2023-04-26T06:45:11.197Z,100.00
2023-04-26T06:47:37.406Z,100.00
2023-04-26T06:50:03.598Z,100.00
2023-04-26T06:52:29.810Z,100.00
2023-04-26T06:54:57.620Z,100.00
2023-04-26T06:57:24.101Z,100.00
2023-04-26T06:59:50.314Z,100.00
2023-04-26T07:05:00.560Z,100.00
2023-04-26T07:07:26.923Z,100.00
2023-04-26T07:09:53.150Z,100.00
2023-04-26T07:12:19.338Z,100.00
2023-04-26T07:14:45.595Z,100.00
2023-04-26T07:17:11.771Z,100.00
2023-04-26T07:19:37.942Z,99.39
2023-04-26T07:22:04.125Z,100.00
2023-04-26T07:24:30.255Z,98.65
2023-04-26T07:26:56.819Z,97.04
2023-04-26T07:29:23.178Z,91.50
2023-04-26T07:31:49.321Z,86.14
2023-04-26T07:34:15.482Z,80.59
2023-04-26T07:36:43.780Z,78.81
2023-04-26T07:39:09.993Z,82.00
2023-04-26T07:41:36.164Z,78.96
2023-04-26T07:44:02.314Z,75.25
2023-04-26T07:46:28.526Z,80.85
2023-04-26T07:48:54.696Z,73.20
2023-04-26T07:51:20.834Z,67.15
2023-04-26T07:53:47.067Z,63.98
2023-04-26T07:56:13.237Z,60.86
2023-04-26T07:58:39.471Z,58.50
2023-04-26T08:01:05.735Z,59.41
2023-04-26T08:03:32.102Z,55.45
2023-04-26T08:05:58.501Z,55.85
2023-04-26T08:08:24.927Z,54.23
2023-04-26T08:10:51.082Z,50.06
2023-04-26T08:13:17.287Z,46.76
2023-04-26T08:18:34.133Z,47.31
2023-04-26T08:21:00.284Z,45.97
2023-04-26T08:23:27.514Z,46.98
2023-04-26T08:25:53.655Z,48.64
2023-04-26T08:28:19.815Z,42.44
2023-04-26T08:30:46.047Z,41.02
2023-04-26T08:33:12.256Z,42.31
2023-04-26T08:38:29.170Z,42.66
2023-04-26T08:40:55.375Z,40.71
2023-04-26T08:43:21.614Z,40.33
2023-04-26T08:45:47.873Z,40.32
2023-04-26T08:48:14.122Z,39.70
2023-04-26T08:50:40.356Z,42.83
2023-04-26T08:53:06.607Z,44.27
2023-04-26T08:55:32.835Z,42.96
2023-04-26T08:57:59.003Z,40.40
2023-04-26T09:00:25.159Z,41.19
2023-04-26T09:05:42.240Z,42.81
2023-04-26T09:08:08.423Z,47.03
2023-04-26T09:10:34.595Z,44.82
2023-04-26T09:13:00.744Z,46.00
2023-04-26T09:15:27.007Z,45.15
2023-04-26T09:17:53.214Z,45.16
2023-04-26T09:20:19.404Z,43.33
2023-04-26T09:22:45.572Z,47.79
2023-04-26T09:25:11.720Z,47.87
2023-04-26T09:27:37.898Z,50.20
2023-04-26T09:30:04.073Z,51.17
2023-04-26T09:32:31.384Z,51.82
2023-04-26T09:37:58.457Z,52.05
2023-04-26T09:40:26.608Z,49.37
2023-04-26T09:42:52.953Z,48.53
2023-04-26T09:45:19.109Z,46.66
2023-04-26T09:50:35.330Z,44.38
2023-04-26T09:53:01.530Z,47.12
2023-04-26T09:55:34.645Z,42.89
2023-04-26T09:58:02.012Z,42.92
2023-04-26T10:00:28.226Z,45.44
2023-04-26T10:02:54.687Z,45.84
2023-04-26T10:05:20.953Z,47.47
2023-04-26T10:07:47.101Z,46.45
2023-04-26T10:10:13.462Z,46.69
2023-04-26T10:12:39.676Z,49.05
2023-04-26T10:15:05.869Z,46.72
2023-04-26T10:17:32.325Z,45.06
2023-04-26T10:19:58.573Z,43.02
2023-04-26T10:22:24.794Z,41.40
2023-04-26T10:24:51.088Z,40.68
2023-04-26T10:27:19.889Z,39.71
2023-04-26T10:29:46.166Z,42.31
2023-04-26T10:32:12.463Z,42.70
2023-04-26T10:34:38.751Z,43.40
2023-04-26T10:37:04.922Z,46.24
2023-04-26T10:39:31.204Z,42.92
2023-04-26T10:41:57.494Z,46.49
2023-04-26T10:44:23.673Z,44.25
2023-04-26T10:46:49.881Z,41.97
2023-04-26T10:49:16.026Z,41.22
2023-04-26T10:51:43.388Z,44.29
2023-04-26T10:54:09.593Z,42.94
2023-04-26T10:56:35.755Z,42.05
2023-04-26T10:59:02.775Z,40.80
2023-04-26T11:01:29.140Z,38.93
2023-04-26T11:03:55.830Z,39.55
2023-04-26T11:06:22.449Z,37.64
2023-04-26T11:08:48.933Z,38.42
2023-04-26T11:11:15.152Z,36.76
2023-04-26T11:13:41.305Z,36.63
2023-04-26T11:16:07.497Z,37.08
2023-04-26T11:18:33.709Z,38.52
2023-04-26T11:20:59.901Z,37.01
2023-04-26T11:23:26.241Z,35.38
2023-04-26T11:25:55.492Z,34.30
2023-04-26T11:28:21.903Z,37.04
2023-04-26T11:30:48.268Z,35.06
2023-04-26T11:33:14.497Z,37.17
2023-04-26T11:35:40.728Z,35.09
2023-04-26T11:38:06.951Z,35.91
2023-04-26T11:40:33.184Z,36.16
2023-04-26T11:42:59.414Z,41.06
2023-04-26T11:45:25.625Z,36.92
2023-04-26T11:47:51.848Z,36.97
2023-04-26T11:50:18.115Z,33.99
2023-04-26T11:52:44.300Z,33.53
2023-04-26T11:55:10.491Z,34.43
2023-04-26T11:57:36.641Z,36.47
2023-04-26T12:00:02.864Z,36.06
2023-04-26T12:02:29.175Z,34.98
2023-04-26T12:04:55.665Z,32.72
2023-04-26T12:07:21.988Z,35.22
2023-04-26T12:09:48.155Z,34.09
2023-04-26T12:12:14.300Z,32.63
2023-04-26T12:14:40.560Z,32.82
2023-04-26T12:17:06.778Z,33.19
2023-04-26T12:19:32.979Z,34.49
2023-04-26T12:21:59.153Z,31.97
2023-04-26T12:24:25.342Z,32.96
2023-04-26T12:26:51.459Z,32.26
2023-04-26T12:29:17.605Z,34.31
2023-04-26T12:31:43.828Z,34.31
2023-04-26T12:34:10.026Z,32.57
2023-04-26T12:36:36.228Z,30.71
2023-04-26T12:39:02.546Z,32.24
2023-04-26T12:41:28.723Z,31.80
2023-04-26T12:43:54.942Z,33.47
2023-04-26T12:46:21.147Z,34.41
2023-04-26T12:48:47.359Z,34.77
2023-04-26T12:51:13.596Z,36.29
2023-04-26T12:53:39.742Z,35.07
2023-04-26T12:56:05.913Z,36.52
2023-04-26T12:58:32.131Z,35.31
2023-04-26T13:00:58.314Z,34.41
2023-04-26T13:03:24.690Z,37.91
2023-04-26T13:05:50.970Z,36.87
2023-04-26T13:08:17.325Z,39.50
2023-04-26T13:10:43.537Z,36.62
2023-04-26T13:13:09.717Z,37.85
2023-04-26T13:15:35.963Z,36.38
2023-04-26T13:18:02.203Z,34.02
2023-04-26T13:20:29.691Z,34.40
2023-04-26T13:22:57.171Z,36.26
2023-04-26T13:25:23.420Z,33.48
2023-04-26T13:27:49.617Z,35.26
2023-04-26T13:30:16.852Z,33.24
2023-04-26T13:32:43.033Z,35.30
2023-04-26T13:35:09.208Z,34.71
2023-04-26T13:37:35.450Z,32.04
2023-04-26T13:40:01.719Z,32.22
2023-04-26T13:42:31.082Z,31.30
2023-04-26T13:44:57.304Z,30.99
2023-04-26T13:47:23.628Z,32.76
2023-04-26T13:49:49.873Z,33.33
2023-04-26T13:52:16.077Z,32.36
2023-04-26T13:54:42.310Z,32.96
2023-04-26T13:57:08.480Z,32.04
2023-04-26T13:59:34.685Z,31.28
2023-04-26T14:02:00.925Z,31.56
2023-04-26T14:04:27.481Z,33.33
2023-04-26T14:06:53.875Z,31.00
2023-04-26T14:09:20.067Z,32.22
2023-04-26T14:11:51.603Z,32.78
2023-04-26T14:14:23.815Z,32.92
2023-04-26T14:16:50.038Z,31.84
2023-04-26T14:19:16.224Z,33.73
2023-04-26T14:21:42.377Z,32.44
2023-04-26T14:24:08.576Z,30.27
2023-04-26T14:26:35.052Z,29.94
2023-04-26T14:29:01.198Z,30.45
2023-04-26T14:31:27.390Z,30.53
2023-04-26T14:33:53.561Z,29.39
2023-04-26T14:36:19.743Z,31.39
2023-04-26T14:38:45.932Z,31.10
2023-04-26T14:41:12.121Z,32.03
2023-04-26T14:43:38.319Z,31.15
2023-04-26T14:46:04.547Z,29.37
2023-04-26T14:48:30.700Z,32.96
2023-04-26T14:50:56.917Z,30.25
2023-04-26T14:53:23.065Z,30.62
2023-04-26T14:55:49.236Z,30.89
2023-04-26T14:58:15.659Z,30.73
2023-04-26T15:00:42.111Z,31.91
2023-04-26T15:03:08.481Z,31.67
2023-04-26T15:05:34.720Z,29.70
2023-04-26T15:08:00.978Z,31.71
2023-04-26T15:10:27.119Z,28.13
2023-04-26T15:12:53.339Z,28.17
2023-04-26T15:15:19.531Z,28.66
2023-04-26T15:17:45.750Z,27.11
2023-04-26T15:20:11.980Z,26.69
2023-04-26T15:22:38.860Z,25.36
2023-04-26T15:25:05.351Z,27.56
2023-04-26T15:27:31.584Z,28.28
2023-04-26T15:29:57.778Z,28.89
2023-04-26T15:32:23.943Z,32.10
2023-04-26T15:34:50.128Z,30.42
2023-04-26T15:37:16.306Z,34.80
2023-04-26T15:39:42.483Z,36.19
2023-04-26T15:42:08.659Z,36.02
2023-04-26T15:44:34.820Z,36.92
2023-04-26T15:47:01.011Z,39.34
2023-04-26T15:49:27.171Z,39.39
2023-04-26T15:51:53.308Z,40.44
2023-04-26T15:54:19.509Z,40.15
2023-04-26T15:56:45.662Z,40.21
2023-04-26T15:59:11.881Z,40.63
2023-04-26T16:01:38.139Z,38.32
2023-04-26T16:04:04.606Z,38.21
2023-04-26T16:06:30.865Z,38.46
2023-04-26T16:08:57.081Z,40.67
2023-04-26T16:11:23.265Z,40.10
2023-04-26T16:13:49.454Z,40.00
2023-04-26T16:16:15.672Z,39.11
2023-04-26T16:18:41.936Z,37.88
2023-04-26T16:21:08.078Z,38.38
2023-04-26T16:23:34.212Z,37.07
2023-04-26T16:26:00.408Z,36.46
2023-04-26T16:28:26.598Z,37.14
2023-04-26T16:30:52.741Z,36.96
2023-04-26T16:33:21.382Z,36.74
2023-04-26T16:35:48.989Z,39.75
2023-04-26T16:38:15.141Z,39.99
2023-04-26T16:40:41.261Z,39.70
2023-04-26T16:43:07.458Z,41.04
2023-04-26T16:45:33.628Z,40.94
2023-04-26T16:47:59.868Z,41.90
2023-04-26T16:50:26.050Z,43.10
2023-04-26T16:52:54.710Z,42.82
2023-04-26T16:55:22.697Z,42.45
2023-04-26T16:57:49.143Z,43.02
2023-04-26T17:00:15.313Z,43.92
2023-04-26T17:02:43.045Z,42.77
2023-04-26T17:05:09.459Z,42.73
2023-04-26T17:07:35.770Z,43.17
2023-04-26T17:10:02.058Z,43.55
2023-04-26T17:12:28.347Z,44.43
2023-04-26T17:14:56.753Z,44.78
2023-04-26T17:17:22.915Z,44.12
2023-04-26T17:19:49.058Z,43.45
2023-04-26T17:22:15.349Z,44.91
2023-04-26T17:24:41.519Z,44.65
2023-04-26T17:27:07.660Z,44.54
2023-04-26T17:29:33.914Z,45.11
2023-04-26T17:32:00.279Z,46.34
2023-04-26T17:34:26.645Z,46.61
2023-04-26T17:36:52.885Z,46.25
2023-04-26T17:39:19.110Z,46.41
2023-04-26T17:41:45.309Z,46.76
2023-04-26T17:44:11.474Z,46.36
2023-04-26T17:46:37.711Z,46.17
2023-04-26T17:49:03.916Z,45.63
2023-04-26T17:51:30.173Z,47.24
2023-04-26T17:54:00.505Z,47.69
2023-04-26T17:56:26.830Z,48.27
2023-04-26T17:58:53.048Z,47.83
2023-04-26T18:01:19.335Z,48.64
2023-04-26T18:03:45.704Z,49.11
2023-04-26T18:06:12.091Z,49.67
2023-04-26T18:08:38.310Z,49.72
2023-04-26T18:11:04.671Z,50.12
2023-04-26T18:13:30.952Z,50.58
2023-04-26T18:15:57.177Z,50.93
2023-04-26T18:18:24.640Z,51.50
2023-04-26T18:20:52.963Z,53.91
2023-04-26T18:23:19.481Z,54.28
2023-04-26T18:25:45.909Z,54.07
2023-04-26T18:28:12.144Z,53.51
2023-04-26T18:30:38.383Z,56.27
2023-04-26T18:33:04.628Z,56.60
2023-04-26T18:35:30.876Z,56.05
2023-04-26T18:40:37.200Z,57.12
2023-04-26T18:43:03.393Z,59.57
2023-04-26T18:48:11.926Z,61.24
2023-04-26T18:50:38.199Z,63.27
2023-04-26T18:53:04.501Z,62.63
2023-04-26T18:55:30.697Z,64.41
2023-04-26T18:57:56.944Z,65.54
2023-04-26T19:00:23.123Z,64.87
2023-04-26T19:02:49.589Z,66.89
2023-04-26T19:05:16.005Z,69.25
2023-04-26T19:07:42.316Z,68.80
2023-04-26T19:10:08.528Z,68.16
2023-04-26T19:12:34.740Z,67.41
2023-04-26T19:15:00.921Z,70.33
2023-04-26T19:17:27.221Z,67.85
2023-04-26T19:19:56.977Z,68.73
2023-04-26T19:22:23.157Z,70.23
2023-04-26T19:24:55.547Z,67.46
2023-04-26T19:27:21.778Z,68.33
2023-04-26T19:29:49.751Z,66.47
2023-04-26T19:32:18.295Z,66.91
2023-04-26T19:34:46.617Z,70.17
2023-04-26T19:37:12.828Z,67.18
2023-04-26T19:39:39.038Z,67.15
2023-04-26T19:42:05.223Z,66.92
2023-04-26T19:44:31.433Z,68.76
2023-04-26T19:46:57.954Z,67.04
2023-04-26T19:49:24.268Z,68.20
2023-04-26T19:51:50.489Z,69.01
2023-04-26T19:54:19.717Z,70.90
2023-04-26T19:56:45.910Z,69.83
2023-04-26T19:59:12.328Z,71.37
2023-04-26T20:01:38.568Z,72.71
2023-04-26T20:04:04.913Z,73.19
2023-04-26T20:06:31.264Z,75.50
2023-04-26T20:08:57.453Z,78.55
2023-04-26T20:11:23.608Z,78.93
2023-04-26T20:13:49.852Z,80.07
2023-04-26T20:16:16.106Z,86.95
2023-04-26T20:18:42.479Z,87.45
2023-04-26T20:21:08.747Z,94.70
2023-04-26T20:23:35.026Z,94.81
2023-04-26T20:26:01.172Z,91.24
2023-04-26T20:28:27.338Z,93.07
2023-04-26T20:30:53.510Z,95.34
2023-04-26T20:33:19.728Z,99.04
2023-04-26T20:35:45.959Z,100.00
2023-04-26T20:38:12.161Z,100.00
2023-04-26T20:40:38.334Z,100.00
2023-04-26T20:43:04.484Z,100.00
2023-04-26T20:45:30.652Z,100.00
2023-04-26T20:47:56.996Z,100.00
2023-04-26T20:50:23.210Z,100.00
2023-04-26T20:52:49.375Z,100.00
2023-04-26T20:55:15.617Z,100.00
2023-04-26T20:57:41.858Z,100.00
2023-04-26T21:00:08.095Z,100.00
2023-04-26T21:02:34.385Z,100.00
2023-04-26T21:05:00.712Z,100.00
2023-04-26T21:07:26.837Z,100.00
2023-04-26T21:09:53.968Z,100.00
2023-04-26T21:12:20.136Z,100.00
2023-04-26T21:14:46.351Z,100.00
2023-04-26T21:17:12.554Z,100.00
2023-04-26T21:19:38.749Z,100.00
2023-04-26T21:22:04.916Z,100.00
2023-04-26T21:24:31.042Z,100.00
2023-04-26T21:27:00.061Z,100.00
2023-04-26T21:29:26.261Z,100.00
2023-04-26T21:31:55.494Z,100.00
2023-04-26T21:34:21.718Z,100.00
2023-04-26T21:36:47.930Z,100.00
2023-04-26T21:39:16.923Z,100.00
2023-04-26T21:41:43.144Z,100.00
2023-04-26T21:44:09.354Z,100.00
2023-04-26T21:46:35.631Z,100.00
2023-04-26T21:49:03.391Z,100.00
2023-04-26T21:51:29.513Z,100.00
2023-04-26T21:53:55.723Z,100.00
2023-04-26T21:56:24.714Z,100.00
2023-04-26T21:58:50.869Z,100.00
2023-04-26T22:01:17.076Z,100.00
2023-04-26T22:03:44.575Z,100.00
2023-04-26T22:06:10.836Z,100.00
2023-04-26T22:08:39.485Z,100.00
2023-04-26T22:11:05.642Z,100.00
2023-04-26T22:13:31.782Z,100.00
2023-04-26T22:15:57.984Z,100.00
2023-04-26T22:18:24.187Z,100.00
2023-04-26T22:20:50.364Z,100.00
2023-04-26T22:23:16.520Z,100.00
2023-04-26T22:25:42.656Z,100.00
2023-04-26T22:28:08.818Z,100.00
2023-04-26T22:30:35.011Z,100.00
2023-04-26T22:33:01.208Z,100.00
2023-04-26T22:35:27.386Z,100.00
2023-04-26T22:37:53.564Z,100.00
2023-04-26T22:40:19.734Z,100.00
2023-04-26T22:42:45.924Z,100.00
2023-04-26T22:45:12.095Z,100.00
2023-04-26T22:47:40.081Z,100.00
2023-04-26T22:50:06.282Z,100.00
2023-04-26T22:52:32.632Z,100.00
2023-04-26T22:54:58.898Z,100.00
2023-04-26T22:57:25.977Z,100.00
2023-04-26T22:59:52.139Z,100.00
2023-04-26T23:02:18.310Z,100.00
2023-04-26T23:04:44.547Z,100.00
2023-04-26T23:07:13.534Z,100.00
2023-04-26T23:09:39.757Z,100.00
2023-04-26T23:12:06.052Z,100.00
2023-04-26T23:14:32.173Z,100.00
2023-04-26T23:16:58.379Z,100.00
2023-04-26T23:19:24.612Z,100.00
2023-04-26T23:21:50.773Z,100.00
2023-04-26T23:24:16.937Z,100.00
2023-04-26T23:26:43.092Z,100.00
2023-04-26T23:29:09.266Z,100.00
2023-04-26T23:31:35.525Z,100.00
2023-04-26T23:34:01.792Z,100.00
2023-04-26T23:36:28.017Z,100.00
2023-04-26T23:38:54.195Z,100.00
2023-04-26T23:41:20.375Z,100.00
2023-04-26T23:43:46.560Z,100.00
2023-04-26T23:46:12.795Z,100.00
2023-04-26T23:48:39.059Z,100.00
2023-04-26T23:51:05.262Z,100.00
2023-04-26T23:53:31.456Z,100.00
2023-04-26T23:55:57.594Z,100.00
2023-04-26T23:58:23.789Z,100.00
